Woodstock, VT

6:49 AM EDT on July 29, 2015 (GMT -0400)
Quechee Schoolhouse | | Change Station
CLOSE
Current Station
Personal Weather Station
Location: Woodstock, VT
Elevation: 1024 ft
Nearby Weather Stations

Elev 1024 ft 43.65 °N, 72.47 °W | Updated 13 seconds ago

Fog
Fog
60.6 °F
Feels Like 60.6 °F
N
0.0
Wind Variable Wind from WSW
Gusts 0.0 mph

Today
High -- | Low -- °F
--% Chance of Precip.
Yesterday
High -- | Low -- °F
Precip. -- in
5:35 AM 8:16 PM
Waxing Gibbous, 95% visible
Pressure 29.99 in
Visibility 1.5 miles
Clouds Overcast 100 ft
Dew Point 60 °F
Humidity 96%
Rainfall 0.00 in
Snow Depth Not available.
UV 1.0 out of 12
Pollen 4.90 out of 12
Air Quality Not available.
Flu Activity Not available.
SPECI KLEB 291024Z 00000KT 1 1/2SM BR OVC001 17/16 A2999 RMK AO2 T01720161

More Conditions Fewer Conditions

Pressure 29.99 in
Visibility 1.5 miles
Clouds Overcast 100 ft
Dew Point 60 °F
Humidity 96%
Rainfall 0.00 in
Snow Depth Not available.
UV 1.0 out of 12
Pollen 4.90 out of 12
Air Quality Not available.
Flu Activity Not available.
SPECI KLEB 291024Z 00000KT 1 1/2SM BR OVC001 17/16 A2999 RMK AO2 T01720161

More Conditions Fewer Conditions

10-Day Weather Forecast

×

Almanac

Astronomy

Jul. 29, 2015 Rise Set
Actual Time
Civil Twilight
Nautical Twilight
Astronomical Twilight
Moon
Length of Visible Light
Length of Day
Tomorrow will be .
, % of the Moon is Illuminated

Today's Extremes

State Highs State Lows

Community

WunderPhotos

Upload Photos

1,842,069 photos uploaded!

WunderBlogs® & News

Nearby

Air Quality

  Air Quality AQ Index Pollutant
Not available.

Snow Depth

Station Depth Elevation

Earthquake Activity

City Distance Mag. Time & Date
Minimum magnitude displayed is 2.5.

Coastal Water Temperatures

Place Temperature

Stations

Nearby Weather Stations

Station Location Temp. Windchill Dew Point Humidity Wind Precip. Elev Updated Type